createdAt,value
2023-02-07T00:00:20.735Z,58.88
2023-02-07T00:02:22.880Z,59.73
2023-02-07T00:04:25.168Z,59.17
2023-02-07T00:06:31.468Z,59.79
2023-02-07T00:08:33.858Z,59.93
2023-02-07T00:10:36.503Z,59.89
2023-02-07T00:12:40.693Z,60.26
2023-02-07T00:14:42.705Z,60.83
2023-02-07T00:16:44.751Z,60.50
2023-02-07T00:18:47.792Z,61.10
2023-02-07T00:20:58.635Z,60.99
2023-02-07T00:23:00.400Z,62.01
2023-02-07T00:25:02.489Z,61.73
2023-02-07T00:27:04.406Z,62.01
2023-02-07T00:29:06.803Z,62.70
2023-02-07T00:31:14.615Z,62.72
2023-02-07T00:33:17.036Z,63.00
2023-02-07T00:35:18.997Z,63.90
2023-02-07T00:37:20.843Z,63.42
2023-02-07T00:39:22.824Z,64.52
2023-02-07T00:41:25.843Z,63.97
2023-02-07T00:43:30.638Z,64.16
2023-02-07T00:45:32.596Z,64.28
2023-02-07T00:47:34.643Z,64.26
2023-02-07T00:49:36.739Z,64.88
2023-02-07T00:51:39.272Z,64.54
2023-02-07T00:53:41.865Z,64.40
2023-02-07T00:55:46.323Z,64.29
2023-02-07T00:57:48.402Z,64.06
2023-02-07T00:59:50.459Z,63.83
2023-02-07T01:01:52.552Z,63.69
2023-02-07T01:03:55.138Z,63.47
2023-02-07T01:05:57.505Z,63.31
2023-02-07T01:07:59.619Z,63.57
2023-02-07T01:10:01.655Z,63.27
2023-02-07T01:12:04.092Z,63.18
2023-02-07T01:14:06.004Z,63.12
2023-02-07T01:16:07.968Z,63.39
2023-02-07T01:18:11.316Z,63.12
2023-02-07T01:20:13.683Z,63.47
2023-02-07T01:22:16.038Z,63.41
2023-02-07T01:24:18.160Z,63.34
2023-02-07T01:26:20.234Z,63.44
2023-02-07T01:28:24.481Z,63.52
2023-02-07T01:30:26.523Z,63.26
2023-02-07T01:32:28.706Z,63.50
2023-02-07T01:34:32.763Z,63.62
2023-02-07T01:36:34.816Z,63.55
2023-02-07T01:38:37.225Z,63.55
2023-02-07T01:40:40.383Z,63.78
2023-02-07T01:42:42.919Z,63.71
2023-02-07T01:44:46.000Z,63.93
2023-02-07T01:46:50.493Z,63.78
2023-02-07T01:48:55.550Z,63.66
2023-02-07T01:51:00.677Z,63.23
2023-02-07T01:53:05.724Z,63.48
2023-02-07T01:55:13.214Z,63.43
2023-02-07T01:57:19.581Z,63.52
2023-02-07T01:59:22.780Z,63.53
2023-02-07T02:01:25.706Z,63.33
2023-02-07T02:03:27.982Z,63.73
2023-02-07T02:05:33.830Z,63.55
2023-02-07T02:07:37.496Z,63.59
2023-02-07T02:09:41.595Z,63.77
2023-02-07T02:11:46.906Z,63.68
2023-02-07T02:13:53.367Z,63.54
2023-02-07T02:16:01.861Z,63.61
2023-02-07T02:18:17.438Z,63.43
2023-02-07T02:20:25.824Z,63.29
2023-02-07T02:22:32.595Z,63.31
2023-02-07T02:24:45.005Z,63.43
2023-02-07T02:26:53.227Z,62.92
2023-02-07T02:28:59.697Z,63.03
2023-02-07T02:31:08.005Z,62.85
2023-02-07T02:33:14.440Z,63.07
2023-02-07T02:35:22.847Z,63.14
2023-02-07T02:37:31.790Z,63.35
2023-02-07T02:39:37.225Z,63.40
2023-02-07T02:41:53.637Z,63.64
2023-02-07T02:43:59.597Z,63.41
2023-02-07T02:46:10.166Z,63.46
2023-02-07T02:48:12.708Z,63.62
2023-02-07T02:50:19.544Z,63.67
2023-02-07T02:52:21.684Z,63.82
2023-02-07T02:54:26.935Z,63.91
2023-02-07T02:56:32.291Z,63.99
2023-02-07T02:58:37.625Z,64.43
2023-02-07T03:00:50.187Z,63.91
2023-02-07T03:02:55.374Z,64.03
2023-02-07T03:05:13.520Z,63.85
2023-02-07T03:07:18.726Z,63.83
2023-02-07T03:09:26.818Z,63.65
2023-02-07T03:11:32.465Z,63.70
2023-02-07T03:13:37.652Z,63.50
2023-02-07T03:15:45.986Z,63.63
2023-02-07T03:17:54.813Z,63.79
2023-02-07T03:19:58.354Z,63.70
2023-02-07T03:22:10.382Z,63.67
2023-02-07T03:24:17.268Z,63.80
2023-02-07T03:26:21.594Z,63.99
2023-02-07T03:28:26.412Z,63.81
2023-02-07T03:30:33.585Z,63.42
2023-02-07T03:32:39.204Z,63.35
2023-02-07T03:34:49.553Z,63.57
2023-02-07T03:36:54.317Z,63.45
2023-02-07T03:38:56.131Z,63.25
2023-02-07T03:41:02.413Z,62.78
2023-02-07T03:43:11.328Z,63.22
2023-02-07T03:45:17.052Z,63.28
2023-02-07T03:47:19.707Z,63.08
2023-02-07T03:49:21.571Z,62.81
2023-02-07T03:51:23.316Z,62.81
2023-02-07T03:53:25.189Z,62.51
2023-02-07T03:55:27.686Z,62.36
2023-02-07T03:57:31.643Z,62.38
2023-02-07T03:59:33.523Z,62.29
2023-02-07T04:01:40.865Z,62.23
2023-02-07T04:03:42.643Z,61.92
2023-02-07T04:05:46.224Z,61.63
2023-02-07T04:07:48.265Z,61.65
2023-02-07T04:09:51.376Z,61.83
2023-02-07T04:11:53.149Z,61.27
2023-02-07T04:13:55.006Z,61.03
2023-02-07T04:15:57.312Z,61.12
2023-02-07T04:17:59.560Z,61.24
2023-02-07T04:20:01.902Z,61.79
2023-02-07T04:22:03.915Z,61.62
2023-02-07T04:24:08.421Z,61.90
2023-02-07T04:26:10.243Z,62.22
2023-02-07T04:28:12.077Z,64.08
2023-02-07T04:30:13.971Z,64.36
2023-02-07T04:32:16.040Z,64.04
2023-02-07T04:34:17.963Z,64.51
2023-02-07T04:36:19.678Z,64.85
2023-02-07T04:38:21.421Z,65.49
2023-02-07T04:40:23.423Z,65.33
2023-02-07T04:42:25.220Z,66.45
2023-02-07T04:44:27.099Z,66.61
2023-02-07T04:46:28.801Z,66.54
2023-02-07T04:48:31.461Z,66.10
2023-02-07T04:50:33.720Z,66.86
2023-02-07T04:52:35.525Z,66.86
2023-02-07T04:54:37.311Z,66.44
2023-02-07T04:56:41.441Z,66.77
2023-02-07T04:58:43.500Z,66.83
2023-02-07T05:00:46.046Z,66.92
2023-02-07T05:02:47.971Z,67.45
2023-02-07T05:04:49.775Z,66.60
2023-02-07T05:06:51.681Z,66.90
2023-02-07T05:08:53.436Z,67.64
2023-02-07T05:10:55.802Z,67.83
2023-02-07T05:12:57.616Z,67.32
2023-02-07T05:14:59.455Z,67.61
2023-02-07T05:17:01.376Z,67.62
2023-02-07T05:19:03.226Z,68.05
2023-02-07T05:21:05.209Z,67.41
2023-02-07T05:23:06.936Z,67.68
2023-02-07T05:25:08.661Z,67.32
2023-02-07T05:27:13.027Z,67.97
2023-02-07T05:29:14.823Z,67.25
2023-02-07T05:31:16.672Z,67.50
2023-02-07T05:33:18.806Z,67.83
2023-02-07T05:35:22.820Z,67.97
2023-02-07T05:37:27.680Z,67.73
2023-02-07T05:39:29.539Z,67.67
2023-02-07T05:41:31.298Z,67.85
2023-02-07T05:43:33.584Z,67.94
2023-02-07T05:45:35.870Z,68.17
2023-02-07T05:47:37.706Z,67.74
2023-02-07T05:49:39.507Z,68.39
2023-02-07T05:51:41.466Z,68.20
2023-02-07T05:53:43.238Z,68.33
2023-02-07T05:55:44.946Z,68.47
2023-02-07T05:57:47.325Z,68.38
2023-02-07T05:59:49.160Z,68.00
2023-02-07T06:01:51.014Z,67.76
2023-02-07T06:03:52.845Z,67.77
2023-02-07T06:05:54.644Z,67.00
2023-02-07T06:07:56.394Z,66.61
2023-02-07T06:09:58.156Z,66.61
2023-02-07T06:11:59.994Z,66.71
2023-02-07T06:14:01.777Z,67.13
2023-02-07T06:16:03.819Z,67.01
2023-02-07T06:18:05.658Z,67.91
2023-02-07T06:20:08.470Z,67.71
2023-02-07T06:22:11.469Z,68.59
2023-02-07T06:24:13.497Z,68.19
2023-02-07T06:26:18.042Z,68.52
2023-02-07T06:28:19.945Z,68.70
2023-02-07T06:30:24.665Z,68.59
2023-02-07T06:32:26.474Z,68.80
2023-02-07T06:34:28.274Z,68.45
2023-02-07T06:36:30.455Z,68.45
2023-02-07T06:38:32.476Z,68.17
2023-02-07T06:40:34.230Z,67.98
2023-02-07T06:42:38.592Z,68.18
2023-02-07T06:44:42.400Z,67.97
2023-02-07T06:46:44.170Z,67.97
2023-02-07T06:48:45.981Z,67.49
2023-02-07T06:50:51.247Z,67.95
2023-02-07T06:52:52.999Z,67.82
2023-02-07T06:54:54.927Z,67.02
2023-02-07T06:56:56.747Z,66.18
2023-02-07T06:58:58.613Z,65.84
2023-02-07T07:01:02.879Z,65.58
2023-02-07T07:03:04.767Z,65.49
2023-02-07T07:05:07.053Z,65.24
2023-02-07T07:07:08.954Z,65.10
2023-02-07T07:09:10.739Z,64.31
2023-02-07T07:11:14.891Z,64.58
2023-02-07T07:13:16.825Z,64.56
2023-02-07T07:15:19.032Z,64.75
2023-02-07T07:17:20.873Z,64.25
2023-02-07T07:19:24.746Z,64.41
2023-02-07T07:21:28.725Z,65.12
2023-02-07T07:23:30.870Z,65.00
2023-02-07T07:25:32.761Z,65.12
2023-02-07T07:27:35.423Z,64.62
2023-02-07T07:29:37.415Z,64.93
2023-02-07T07:31:39.303Z,64.87
2023-02-07T07:33:41.162Z,64.74
2023-02-07T07:35:43.611Z,64.18
2023-02-07T07:37:45.485Z,64.73
2023-02-07T07:39:47.384Z,64.68
2023-02-07T07:41:52.391Z,64.78
2023-02-07T07:43:55.242Z,64.64
2023-02-07T07:46:00.260Z,65.08
2023-02-07T07:48:02.434Z,64.08
2023-02-07T07:50:04.929Z,64.85
2023-02-07T07:52:07.217Z,64.60
2023-02-07T07:54:09.135Z,64.25
2023-02-07T07:56:11.197Z,64.69
2023-02-07T07:58:13.125Z,64.44
2023-02-07T08:00:19.624Z,64.25
2023-02-07T08:02:21.851Z,64.46
2023-02-07T08:04:23.715Z,64.75
2023-02-07T08:06:25.659Z,64.21
2023-02-07T08:08:27.597Z,64.61
2023-02-07T08:10:32.164Z,64.85
2023-02-07T08:12:37.186Z,65.15
2023-02-07T08:14:39.697Z,64.67
2023-02-07T08:16:43.956Z,64.84
2023-02-07T08:18:45.955Z,65.17
2023-02-07T08:20:49.815Z,65.27
2023-02-07T08:22:51.920Z,65.21
2023-02-07T08:24:53.937Z,64.68
2023-02-07T08:26:55.885Z,64.64
2023-02-07T08:28:57.962Z,65.13
2023-02-07T08:31:02.374Z,64.76
2023-02-07T08:33:04.595Z,65.25
2023-02-07T08:35:07.497Z,65.16
2023-02-07T08:37:09.564Z,64.80
2023-02-07T08:39:13.964Z,64.77
2023-02-07T08:41:16.715Z,64.91
2023-02-07T08:43:20.842Z,64.67
2023-02-07T08:45:22.916Z,65.13
2023-02-07T08:47:27.466Z,65.10
2023-02-07T08:49:29.642Z,64.56
2023-02-07T08:51:31.656Z,64.62
2023-02-07T08:53:33.636Z,64.63
2023-02-07T08:55:35.561Z,64.63
2023-02-07T08:57:38.566Z,64.50
2023-02-07T08:59:40.633Z,64.86
2023-02-07T09:01:43.132Z,64.39
2023-02-07T09:03:45.044Z,64.59
2023-02-07T09:05:47.023Z,65.19
2023-02-07T09:07:49.202Z,65.35
2023-02-07T09:09:51.742Z,65.75
2023-02-07T09:11:53.903Z,65.36
2023-02-07T09:13:55.961Z,65.65
2023-02-07T09:15:58.790Z,65.91
2023-02-07T09:18:00.876Z,66.12
2023-02-07T09:20:02.861Z,65.34
2023-02-07T09:22:05.398Z,65.27
2023-02-07T09:24:07.448Z,65.69
2023-02-07T09:26:19.947Z,66.43
2023-02-07T09:28:24.651Z,66.96
2023-02-07T09:30:26.627Z,67.08
2023-02-07T09:32:28.547Z,67.29
2023-02-07T09:34:34.563Z,66.60
2023-02-07T09:36:36.741Z,67.09
2023-02-07T09:38:38.691Z,66.29
2023-02-07T09:40:41.270Z,66.59
2023-02-07T09:42:55.888Z,65.74
2023-02-07T09:45:02.406Z,65.32
2023-02-07T09:47:13.052Z,63.95
2023-02-07T09:49:25.757Z,63.87
2023-02-07T09:51:32.181Z,63.79
2023-02-07T09:53:44.067Z,63.88
2023-02-07T09:55:51.560Z,64.63
2023-02-07T09:58:02.565Z,64.31
2023-02-07T10:00:18.821Z,64.62
2023-02-07T10:02:24.345Z,65.07
2023-02-07T10:04:30.812Z,65.48
2023-02-07T10:06:35.242Z,64.91
2023-02-07T10:08:41.270Z,65.60
2023-02-07T10:10:51.080Z,64.90
2023-02-07T10:12:56.479Z,64.63
2023-02-07T10:15:01.897Z,64.78
2023-02-07T10:17:14.074Z,64.53
2023-02-07T10:19:22.420Z,64.65
2023-02-07T10:21:28.898Z,64.27
2023-02-07T10:23:42.785Z,64.79
2023-02-07T10:25:51.785Z,64.88
2023-02-07T10:27:57.749Z,64.62
2023-02-07T10:30:05.973Z,64.64
2023-02-07T10:32:15.809Z,64.16
2023-02-07T10:34:28.137Z,63.73
2023-02-07T10:36:34.516Z,63.55
2023-02-07T10:38:47.693Z,63.55
2023-02-07T10:40:59.848Z,63.18
2023-02-07T10:43:07.314Z,63.08
2023-02-07T10:45:14.687Z,63.07
2023-02-07T10:47:18.676Z,63.24
2023-02-07T10:49:25.382Z,63.52
2023-02-07T10:51:31.788Z,63.45
2023-02-07T10:53:49.190Z,63.18
2023-02-07T10:55:55.837Z,63.39
2023-02-07T10:58:06.374Z,63.43
2023-02-07T11:00:16.570Z,63.03
2023-02-07T11:02:23.332Z,63.02
2023-02-07T11:04:36.800Z,62.50
2023-02-07T11:06:40.988Z,62.69
2023-02-07T11:08:42.867Z,62.04
2023-02-07T11:10:46.141Z,61.82
2023-02-07T11:12:50.686Z,61.03
2023-02-07T11:14:58.859Z,60.71
2023-02-07T11:17:01.532Z,60.86
2023-02-07T11:19:06.092Z,59.75
2023-02-07T11:21:20.565Z,59.33
2023-02-07T11:23:24.750Z,59.19
2023-02-07T11:25:31.380Z,58.96
2023-02-07T11:27:40.088Z,58.79
2023-02-07T11:29:46.348Z,58.51
2023-02-07T11:31:53.974Z,58.72
2023-02-07T11:34:08.879Z,57.95
2023-02-07T11:36:13.160Z,56.32
2023-02-07T11:38:16.362Z,55.55
2023-02-07T11:40:25.216Z,55.90
2023-02-07T11:42:32.451Z,56.21
2023-02-07T11:44:43.468Z,56.35
2023-02-07T11:46:48.200Z,56.85
2023-02-07T11:48:55.216Z,56.82
2023-02-07T11:51:03.747Z,56.29
2023-02-07T11:53:06.542Z,56.00
2023-02-07T11:55:16.019Z,55.51
2023-02-07T11:57:19.932Z,55.46
2023-02-07T11:59:24.865Z,55.08
2023-02-07T12:01:31.490Z,54.83
2023-02-07T12:03:41.353Z,53.01
2023-02-07T12:05:46.730Z,52.88
2023-02-07T12:07:53.121Z,53.21
2023-02-07T12:10:00.584Z,53.58
2023-02-07T12:12:08.048Z,52.65
2023-02-07T12:14:19.641Z,52.88
2023-02-07T12:16:24.928Z,52.33
2023-02-07T12:18:32.074Z,51.42
2023-02-07T12:20:41.065Z,51.16
2023-02-07T12:23:01.102Z,50.53
2023-02-07T12:25:16.600Z,49.39
2023-02-07T12:27:19.932Z,49.59
2023-02-07T12:29:27.033Z,50.06
2023-02-07T12:31:46.899Z,50.27
2023-02-07T12:33:57.868Z,50.19
2023-02-07T12:36:13.923Z,50.26
2023-02-07T12:38:23.885Z,50.88
2023-02-07T12:40:34.845Z,50.47
2023-02-07T12:42:43.094Z,50.06
2023-02-07T12:44:56.141Z,50.12
2023-02-07T12:47:05.189Z,49.61
2023-02-07T12:49:11.639Z,49.51
2023-02-07T12:51:29.884Z,48.73
2023-02-07T12:53:40.574Z,49.21
2023-02-07T12:55:52.360Z,49.62
2023-02-07T12:57:57.787Z,49.75
2023-02-07T13:00:06.807Z,49.08
2023-02-07T13:02:14.911Z,48.95
2023-02-07T13:04:25.141Z,48.90
2023-02-07T13:06:31.551Z,48.85
2023-02-07T13:08:44.644Z,49.11
2023-02-07T13:10:57.605Z,48.05
2023-02-07T13:13:07.208Z,47.68
2023-02-07T13:15:09.849Z,47.56
2023-02-07T13:17:19.557Z,47.40
2023-02-07T13:19:33.955Z,47.32
2023-02-07T13:21:40.990Z,47.56
2023-02-07T13:23:47.433Z,47.22
2023-02-07T13:25:54.701Z,47.72
2023-02-07T13:28:01.347Z,47.29
2023-02-07T13:30:03.919Z,47.10
2023-02-07T13:32:12.958Z,46.57
2023-02-07T13:34:19.112Z,46.85
2023-02-07T13:36:24.554Z,46.95
2023-02-07T13:38:32.680Z,46.00
2023-02-07T13:40:39.678Z,46.10
2023-02-07T13:42:50.500Z,45.41
2023-02-07T13:44:58.832Z,45.52
2023-02-07T13:47:11.702Z,45.58
2023-02-07T13:49:32.994Z,45.23
2023-02-07T13:51:40.980Z,45.68
2023-02-07T13:53:49.245Z,45.97
2023-02-07T13:55:52.347Z,45.14
2023-02-07T13:57:57.391Z,44.91
2023-02-07T14:00:05.566Z,44.94
2023-02-07T14:02:17.799Z,45.05
2023-02-07T14:04:24.669Z,45.03
2023-02-07T14:06:30.563Z,44.55
2023-02-07T14:08:32.555Z,44.58
2023-02-07T14:10:38.919Z,44.71
2023-02-07T14:12:40.985Z,44.22
2023-02-07T14:15:00.410Z,44.27
2023-02-07T14:17:07.043Z,44.57
2023-02-07T14:19:13.065Z,44.64
2023-02-07T14:21:22.414Z,44.73
2023-02-07T14:23:26.921Z,44.08
2023-02-07T14:25:33.000Z,44.26
2023-02-07T14:27:40.223Z,44.04
2023-02-07T14:29:56.588Z,43.46
2023-02-07T14:32:03.249Z,44.40
2023-02-07T14:34:14.552Z,43.36
2023-02-07T14:36:24.468Z,43.14
2023-02-07T14:38:39.735Z,42.76
2023-02-07T14:40:43.876Z,43.04
2023-02-07T14:42:55.029Z,42.69
2023-02-07T14:45:01.398Z,42.54
2023-02-07T14:47:07.132Z,41.96
2023-02-07T14:49:20.859Z,41.90
2023-02-07T14:51:29.109Z,41.71
2023-02-07T14:53:31.952Z,41.69
2023-02-07T14:55:40.165Z,41.66
2023-02-07T14:57:48.967Z,40.96
2023-02-07T14:59:59.043Z,41.21
2023-02-07T15:02:07.656Z,40.67
2023-02-07T15:04:12.203Z,41.71
2023-02-07T15:06:30.665Z,40.88
2023-02-07T15:08:35.485Z,41.03
2023-02-07T15:10:48.134Z,40.61
2023-02-07T15:12:52.924Z,40.65
2023-02-07T15:14:57.250Z,40.94
2023-02-07T15:17:00.683Z,40.42
2023-02-07T15:19:10.502Z,40.19
2023-02-07T15:21:17.319Z,40.48
2023-02-07T15:23:25.105Z,41.01
2023-02-07T15:25:31.825Z,40.88
2023-02-07T15:27:33.678Z,40.31
2023-02-07T15:29:38.065Z,40.89
2023-02-07T15:31:41.658Z,41.03
2023-02-07T15:33:47.169Z,41.25
2023-02-07T15:35:52.227Z,41.97
2023-02-07T15:37:56.019Z,41.88
2023-02-07T15:39:58.089Z,41.60
2023-02-07T15:42:00.069Z,42.48
2023-02-07T15:44:04.984Z,43.03
2023-02-07T15:46:10.862Z,42.95
2023-02-07T15:48:19.191Z,42.85
2023-02-07T15:50:28.516Z,43.39
2023-02-07T15:52:35.629Z,43.11
2023-02-07T15:54:40.585Z,43.58
2023-02-07T15:56:46.622Z,43.54
2023-02-07T15:58:50.053Z,43.69
2023-02-07T16:00:53.856Z,43.58
2023-02-07T16:02:59.826Z,44.24
2023-02-07T16:05:08.210Z,44.06
2023-02-07T16:07:13.455Z,44.45
2023-02-07T16:09:38.212Z,43.83
2023-02-07T16:11:40.158Z,43.82
2023-02-07T16:13:47.047Z,43.78
2023-02-07T16:15:54.359Z,44.56
2023-02-07T16:17:56.692Z,44.44
2023-02-07T16:19:58.591Z,45.11
2023-02-07T16:22:04.083Z,44.51
2023-02-07T16:24:10.197Z,44.42
2023-02-07T16:26:13.110Z,44.27
2023-02-07T16:28:16.387Z,44.66
2023-02-07T16:30:24.468Z,44.24
2023-02-07T16:32:34.846Z,44.84
2023-02-07T16:34:42.535Z,45.07
2023-02-07T16:36:55.364Z,44.69
2023-02-07T16:38:57.348Z,44.71
2023-02-07T16:41:00.884Z,44.90
2023-02-07T16:43:05.704Z,45.38
2023-02-07T16:45:17.161Z,45.25
2023-02-07T16:47:19.821Z,45.04
2023-02-07T16:49:25.017Z,45.07
2023-02-07T16:51:27.521Z,45.33
2023-02-07T16:53:29.977Z,45.33
2023-02-07T16:55:34.625Z,45.09
2023-02-07T16:57:38.950Z,45.94
2023-02-07T16:59:41.471Z,45.68
2023-02-07T17:01:44.241Z,45.62
2023-02-07T17:03:47.457Z,45.43
2023-02-07T17:05:51.167Z,45.32
2023-02-07T17:07:53.595Z,45.34
2023-02-07T17:09:56.072Z,45.46
2023-02-07T17:11:58.614Z,45.71
2023-02-07T17:14:01.595Z,45.58
2023-02-07T17:16:04.443Z,46.26
2023-02-07T17:18:06.949Z,46.04
2023-02-07T17:20:21.855Z,45.79
2023-02-07T17:22:24.534Z,46.45
2023-02-07T17:24:27.019Z,46.13
2023-02-07T17:26:32.549Z,46.46
2023-02-07T17:28:35.421Z,46.39
2023-02-07T17:30:41.191Z,46.67
2023-02-07T17:32:44.390Z,46.09
2023-02-07T17:34:47.261Z,46.51
2023-02-07T17:36:51.409Z,46.81
2023-02-07T17:38:55.736Z,47.35
2023-02-07T17:40:58.793Z,47.40
2023-02-07T17:43:01.690Z,47.85
2023-02-07T17:45:04.535Z,47.30
2023-02-07T17:47:07.120Z,47.13
2023-02-07T17:49:15.118Z,47.87
2023-02-07T17:51:20.386Z,48.07
2023-02-07T17:53:23.762Z,48.04
2023-02-07T17:55:27.147Z,48.60
2023-02-07T17:57:30.336Z,47.93
2023-02-07T17:59:33.766Z,47.78
2023-02-07T18:01:36.985Z,47.79
2023-02-07T18:03:40.058Z,48.00
2023-02-07T18:05:43.335Z,48.48
2023-02-07T18:07:47.706Z,48.47
2023-02-07T18:09:50.549Z,48.64
2023-02-07T18:11:53.561Z,48.64
2023-02-07T18:13:58.117Z,48.31
2023-02-07T18:16:01.256Z,48.89
2023-02-07T18:18:04.045Z,48.65
2023-02-07T18:20:11.725Z,48.68
2023-02-07T18:22:14.296Z,49.04
2023-02-07T18:24:16.697Z,48.77
2023-02-07T18:26:19.978Z,49.22
2023-02-07T18:28:22.672Z,49.11
2023-02-07T18:30:28.098Z,49.06
2023-02-07T18:32:30.787Z,49.21
2023-02-07T18:34:33.257Z,49.85
2023-02-07T18:36:40.838Z,49.19
2023-02-07T18:38:43.876Z,49.51
2023-02-07T18:40:46.472Z,49.32
2023-02-07T18:42:48.723Z,49.60
2023-02-07T18:44:52.226Z,49.44
2023-02-07T18:46:54.774Z,49.81
2023-02-07T18:48:58.383Z,50.11
2023-02-07T18:51:06.619Z,50.30
2023-02-07T18:53:09.184Z,50.10
2023-02-07T18:55:12.151Z,49.53
2023-02-07T18:57:14.769Z,49.76
2023-02-07T18:59:17.966Z,50.90
2023-02-07T19:01:21.436Z,51.47
2023-02-07T19:03:23.722Z,52.05
2023-02-07T19:05:25.981Z,52.46
2023-02-07T19:07:28.381Z,53.12
2023-02-07T19:09:30.762Z,53.91
2023-02-07T19:11:33.344Z,54.19
2023-02-07T19:13:37.109Z,54.71
2023-02-07T19:15:39.554Z,54.89
2023-02-07T19:17:41.805Z,55.50
2023-02-07T19:19:43.916Z,55.94
2023-02-07T19:21:46.526Z,55.81
2023-02-07T19:23:50.768Z,56.05
2023-02-07T19:25:53.001Z,55.89
2023-02-07T19:27:55.197Z,56.17
2023-02-07T19:29:57.540Z,56.64
2023-02-07T19:32:05.262Z,57.07
2023-02-07T19:34:07.619Z,57.40
2023-02-07T19:36:11.812Z,57.56
2023-02-07T19:38:14.113Z,57.80
2023-02-07T19:40:16.239Z,57.89
2023-02-07T19:42:18.423Z,58.07
2023-02-07T19:44:20.704Z,58.49
2023-02-07T19:46:25.596Z,58.59
2023-02-07T19:48:27.953Z,59.04
2023-02-07T19:50:31.134Z,58.95
2023-02-07T19:52:33.567Z,58.65
2023-02-07T19:54:35.853Z,59.04
2023-02-07T19:56:38.229Z,59.02
2023-02-07T19:58:44.087Z,59.28
2023-02-07T20:00:46.178Z,59.79
2023-02-07T20:02:48.428Z,59.15
2023-02-07T20:04:54.799Z,59.33
2023-02-07T20:06:57.331Z,59.15
2023-02-07T20:09:01.531Z,59.44
2023-02-07T20:11:06.140Z,59.39
2023-02-07T20:13:08.217Z,59.71
2023-02-07T20:15:11.122Z,59.62
2023-02-07T20:17:13.213Z,59.31
2023-02-07T20:19:15.743Z,59.77
2023-02-07T20:21:21.540Z,59.77
2023-02-07T20:23:23.857Z,60.03
2023-02-07T20:25:30.374Z,59.79
2023-02-07T20:27:32.581Z,59.94
2023-02-07T20:29:34.942Z,60.36
2023-02-07T20:31:38.009Z,60.09
2023-02-07T20:33:42.150Z,60.35
2023-02-07T20:35:44.256Z,60.86
2023-02-07T20:37:46.517Z,60.31
2023-02-07T20:39:48.876Z,60.17
2023-02-07T20:41:51.886Z,60.33
2023-02-07T20:43:54.339Z,60.82
2023-02-07T20:46:05.903Z,61.13
2023-02-07T20:48:08.139Z,60.51
2023-02-07T20:50:10.243Z,61.33
2023-02-07T20:52:12.335Z,61.19
2023-02-07T20:54:15.663Z,60.93
2023-02-07T20:56:18.508Z,61.21
2023-02-07T20:58:20.684Z,60.94
2023-02-07T21:00:23.168Z,60.79
2023-02-07T21:02:25.488Z,61.36
2023-02-07T21:04:29.263Z,61.11
2023-02-07T21:06:33.694Z,61.23
2023-02-07T21:08:37.088Z,61.08
2023-02-07T21:10:40.348Z,61.41
2023-02-07T21:12:43.042Z,61.55
2023-02-07T21:14:45.423Z,61.90
2023-02-07T21:16:47.691Z,61.57
2023-02-07T21:18:50.871Z,62.10
2023-02-07T21:20:53.547Z,62.40
2023-02-07T21:22:56.568Z,62.08
2023-02-07T21:24:58.900Z,61.96
2023-02-07T21:27:03.358Z,62.20
2023-02-07T21:29:06.878Z,61.41
2023-02-07T21:31:12.919Z,61.64
2023-02-07T21:33:15.042Z,61.54
2023-02-07T21:35:17.570Z,61.36
2023-02-07T21:37:21.200Z,61.17
2023-02-07T21:39:24.548Z,61.07
2023-02-07T21:41:28.169Z,61.11
2023-02-07T21:43:30.298Z,60.97
2023-02-07T21:45:32.486Z,60.74
2023-02-07T21:47:34.571Z,60.92
2023-02-07T21:49:36.888Z,60.82
2023-02-07T21:51:39.017Z,60.65
2023-02-07T21:53:41.492Z,60.49
2023-02-07T21:55:43.673Z,60.17
2023-02-07T21:57:45.729Z,60.10
2023-02-07T21:59:47.736Z,60.21
2023-02-07T22:01:50.616Z,60.34
2023-02-07T22:03:54.761Z,60.20
2023-02-07T22:05:56.886Z,60.36
2023-02-07T22:07:58.928Z,60.45
2023-02-07T22:10:01.042Z,60.50
2023-02-07T22:12:03.093Z,60.44
2023-02-07T22:14:05.447Z,60.15
2023-02-07T22:16:10.264Z,60.15
2023-02-07T22:18:12.267Z,60.06
2023-02-07T22:20:14.259Z,59.76
2023-02-07T22:22:16.330Z,59.79
2023-02-07T22:24:19.516Z,59.95
2023-02-07T22:26:22.327Z,59.97
2023-02-07T22:28:24.363Z,60.46
2023-02-07T22:30:26.432Z,60.50
2023-02-07T22:32:28.567Z,60.10
2023-02-07T22:34:30.584Z,60.15
2023-02-07T22:36:34.089Z,59.84
2023-02-07T22:38:36.083Z,59.65
2023-02-07T22:40:40.525Z,59.04
2023-02-07T22:42:42.696Z,59.12
2023-02-07T22:44:44.703Z,59.12
2023-02-07T22:46:46.786Z,58.66
2023-02-07T22:48:49.116Z,58.66
2023-02-07T22:50:51.144Z,58.73
2023-02-07T22:52:53.292Z,59.05
2023-02-07T22:54:55.405Z,59.13
2023-02-07T22:56:57.506Z,59.42
2023-02-07T22:58:59.556Z,59.11
2023-02-07T23:01:01.633Z,59.44
2023-02-07T23:03:03.665Z,59.36
2023-02-07T23:05:06.378Z,58.98
2023-02-07T23:07:08.425Z,59.21
2023-02-07T23:09:11.189Z,59.20
2023-02-07T23:11:15.523Z,58.67
2023-02-07T23:13:17.541Z,59.21
2023-02-07T23:15:19.749Z,59.04
2023-02-07T23:17:21.915Z,58.87
2023-02-07T23:19:24.025Z,58.82
2023-02-07T23:21:27.139Z,59.37
2023-02-07T23:23:29.204Z,58.64
2023-02-07T23:25:31.577Z,59.13
2023-02-07T23:27:34.196Z,58.84
2023-02-07T23:29:36.439Z,58.76
2023-02-07T23:31:38.517Z,58.90
2023-02-07T23:33:40.945Z,58.89
2023-02-07T23:35:43.047Z,58.74
2023-02-07T23:37:45.031Z,59.41
2023-02-07T23:39:47.084Z,59.49
2023-02-07T23:41:49.111Z,59.62
2023-02-07T23:43:51.047Z,59.24
2023-02-07T23:45:53.247Z,59.41
2023-02-07T23:47:55.354Z,59.62
2023-02-07T23:49:57.445Z,59.48
2023-02-07T23:51:59.435Z,59.42
2023-02-07T23:54:01.833Z,59.68
2023-02-07T23:56:05.600Z,59.39
2023-02-07T23:58:07.740Z,59.71
